createdAt,value
2023-01-04T00:00:46.756Z,68.68
2023-01-04T00:05:52.379Z,68.48
2023-01-04T00:11:08.659Z,68.72
2023-01-04T00:16:17.519Z,68.65
2023-01-04T00:21:28.397Z,68.92
2023-01-04T00:26:36.113Z,68.87
2023-01-04T00:31:42.375Z,69.18
2023-01-04T00:36:48.111Z,69.32
2023-01-04T00:42:00.107Z,69.21
2023-01-04T00:47:03.579Z,69.55
2023-01-04T00:52:09.895Z,70.21
2023-01-04T00:57:15.423Z,70.23
2023-01-04T01:02:21.047Z,70.39
2023-01-04T01:07:26.625Z,70.49
2023-01-04T01:12:32.158Z,70.87
2023-01-04T01:17:37.675Z,70.99
2023-01-04T01:22:43.401Z,71.42
2023-01-04T01:27:48.785Z,71.36
2023-01-04T01:32:54.237Z,71.54
2023-01-04T01:37:59.709Z,71.67
2023-01-04T01:43:05.136Z,71.88
2023-01-04T01:48:16.720Z,71.96
2023-01-04T01:53:23.503Z,72.29
2023-01-04T01:58:34.676Z,72.23
2023-01-04T02:03:44.722Z,72.28
2023-01-04T02:08:51.018Z,72.37
2023-01-04T02:14:15.978Z,72.61
2023-01-04T02:19:45.518Z,72.90
2023-01-04T02:25:15.142Z,73.09
2023-01-04T02:30:48.112Z,73.37
2023-01-04T02:36:05.132Z,73.52
2023-01-04T02:41:31.821Z,73.76
2023-01-04T02:46:40.545Z,73.81
2023-01-04T02:51:46.445Z,74.28
2023-01-04T02:57:17.913Z,74.08
2023-01-04T03:03:13.166Z,74.48
2023-01-04T03:08:36.534Z,74.36
2023-01-04T03:13:45.879Z,74.50
2023-01-04T03:18:54.568Z,74.48
2023-01-04T03:24:07.084Z,74.49
2023-01-04T03:29:39.722Z,74.73
2023-01-04T03:35:03.589Z,74.64
2023-01-04T03:40:44.980Z,74.58
2023-01-04T03:46:11.443Z,74.67
2023-01-04T03:51:21.210Z,74.72
2023-01-04T03:56:29.597Z,74.62
2023-01-04T04:01:36.273Z,74.42
2023-01-04T04:06:59.972Z,75.02
2023-01-04T04:12:05.469Z,74.96
2023-01-04T04:17:10.837Z,74.93
2023-01-04T04:22:16.438Z,74.97
2023-01-04T04:27:21.824Z,74.94
2023-01-04T04:32:27.542Z,75.15
2023-01-04T04:37:34.359Z,75.31
2023-01-04T04:42:39.946Z,75.31
2023-01-04T04:47:45.438Z,75.33
2023-01-04T04:52:55.736Z,75.64
2023-01-04T04:57:58.036Z,75.64
2023-01-04T05:03:04.150Z,75.49
2023-01-04T05:08:09.848Z,75.90
2023-01-04T05:13:15.407Z,75.82
2023-01-04T05:18:23.251Z,76.20
2023-01-04T05:23:28.779Z,76.15
2023-01-04T05:28:34.231Z,76.06
2023-01-04T05:33:39.752Z,76.35
2023-01-04T05:38:45.291Z,76.41
2023-01-04T05:43:50.750Z,76.66
2023-01-04T05:48:56.140Z,76.42
2023-01-04T05:54:01.636Z,76.59
2023-01-04T05:59:07.013Z,76.67
2023-01-04T06:04:12.514Z,76.53
2023-01-04T06:09:18.280Z,76.67
2023-01-04T06:14:23.673Z,76.53
2023-01-04T06:19:29.291Z,76.82
2023-01-04T06:24:35.091Z,76.62
2023-01-04T06:29:40.529Z,76.83
2023-01-04T06:34:46.057Z,76.37
2023-01-04T06:39:51.501Z,76.25
2023-01-04T06:44:56.863Z,76.27
2023-01-04T06:50:02.480Z,76.43
2023-01-04T06:55:10.784Z,75.99
2023-01-04T07:00:17.059Z,76.06
2023-01-04T07:05:22.506Z,75.79
2023-01-04T07:10:28.118Z,76.42
2023-01-04T07:15:38.349Z,76.36
2023-01-04T07:20:41.340Z,76.45
2023-01-04T07:25:46.786Z,76.37
2023-01-04T07:30:52.344Z,76.60
2023-01-04T07:36:01.544Z,76.44
2023-01-04T07:41:07.266Z,76.38
2023-01-04T07:46:12.910Z,76.19
2023-01-04T07:51:18.373Z,76.27
2023-01-04T07:56:23.880Z,76.14
2023-01-04T08:01:29.793Z,76.03
2023-01-04T08:06:36.933Z,76.30
2023-01-04T08:11:42.556Z,75.84
2023-01-04T08:16:48.271Z,75.97
2023-01-04T08:21:53.831Z,75.94
2023-01-04T08:26:59.582Z,75.45
2023-01-04T08:32:06.076Z,75.47
2023-01-04T08:37:11.485Z,75.51
2023-01-04T08:42:24.789Z,75.08
2023-01-04T08:47:24.081Z,75.50
2023-01-04T08:52:29.453Z,76.24
2023-01-04T08:57:36.568Z,75.58
2023-01-04T09:02:42.392Z,75.73
2023-01-04T09:07:48.186Z,79.81
2023-01-04T09:12:53.857Z,76.78
2023-01-04T09:18:30.727Z,76.37
2023-01-04T09:23:06.523Z,76.14
2023-01-04T09:28:11.973Z,76.81
2023-01-04T09:33:17.389Z,76.95
2023-01-04T09:38:22.840Z,77.04
2023-01-04T09:43:31.311Z,77.87
2023-01-04T09:48:41.221Z,78.18
2023-01-04T09:53:49.735Z,78.57
2023-01-04T09:58:55.881Z,79.20
2023-01-04T10:04:10.205Z,79.40
2023-01-04T10:09:17.897Z,79.87
2023-01-04T10:14:35.545Z,80.09
2023-01-04T10:25:26.038Z,80.96
2023-01-04T10:30:57.314Z,81.30
2023-01-04T10:36:03.475Z,81.81
2023-01-04T10:41:15.047Z,81.87
2023-01-04T10:46:23.523Z,82.05
2023-01-04T10:51:50.394Z,82.36
2023-01-04T10:57:11.740Z,82.29
2023-01-04T11:02:29.599Z,82.52
2023-01-04T11:07:43.783Z,82.78
2023-01-04T11:12:49.538Z,83.03
2023-01-04T11:17:55.565Z,83.56
2023-01-04T11:23:18.906Z,83.71
2023-01-04T11:28:34.037Z,83.78
2023-01-04T11:34:00.419Z,83.78
2023-01-04T11:39:09.229Z,84.35
2023-01-04T11:44:17.659Z,84.37
2023-01-04T11:49:23.036Z,84.68
2023-01-04T11:54:28.512Z,84.89
2023-01-04T11:59:34.473Z,84.98
2023-01-04T12:04:40.000Z,85.34
2023-01-04T12:09:45.527Z,85.64
2023-01-04T12:14:51.870Z,85.93
2023-01-04T12:20:00.335Z,88.56
2023-01-04T12:25:09.003Z,85.26
2023-01-04T12:30:17.428Z,85.25
2023-01-04T12:35:57.420Z,85.44
2023-01-04T12:41:03.160Z,85.83
2023-01-04T12:46:49.563Z,86.10
2023-01-04T12:52:48.349Z,86.44
2023-01-04T12:57:24.977Z,86.25
2023-01-04T13:02:35.619Z,86.63
2023-01-04T13:07:52.930Z,86.81
2023-01-04T13:13:04.083Z,87.02
2023-01-04T13:18:21.778Z,87.33
2023-01-04T13:23:28.791Z,87.54
2023-01-04T13:28:36.256Z,87.69
2023-01-04T13:33:43.296Z,87.63
2023-01-04T13:38:48.813Z,87.67
2023-01-04T13:44:00.155Z,87.84
2023-01-04T13:49:06.034Z,88.05
2023-01-04T13:54:28.954Z,88.00
2023-01-04T13:59:32.716Z,88.25
2023-01-04T14:04:38.360Z,88.22
2023-01-04T14:09:49.517Z,88.58
2023-01-04T14:14:59.601Z,88.52
2023-01-04T14:20:16.902Z,88.72
2023-01-04T14:25:48.123Z,88.92
2023-01-04T14:30:59.936Z,89.00
2023-01-04T14:36:11.883Z,89.00
2023-01-04T14:41:20.585Z,89.39
2023-01-04T14:46:26.550Z,89.41
2023-01-04T14:51:38.415Z,89.35
2023-01-04T14:56:44.014Z,89.64
2023-01-04T15:01:49.483Z,89.68
2023-01-04T15:06:58.034Z,89.63
2023-01-04T15:12:03.559Z,89.85
2023-01-04T15:17:10.505Z,89.98
2023-01-04T15:22:16.076Z,89.93
2023-01-04T15:27:24.473Z,89.91
2023-01-04T15:32:28.607Z,90.18
2023-01-04T15:37:34.069Z,90.18
2023-01-04T15:42:57.670Z,90.30
2023-01-04T15:48:05.820Z,90.52
2023-01-04T15:53:12.023Z,90.49
2023-01-04T15:58:17.391Z,90.94
2023-01-04T16:03:22.947Z,91.58
2023-01-04T16:08:28.520Z,91.55
2023-01-04T16:13:34.658Z,91.88
2023-01-04T16:18:42.022Z,91.90
2023-01-04T16:23:55.888Z,91.88
2023-01-04T16:29:01.058Z,92.13
2023-01-04T16:34:07.215Z,92.27
2023-01-04T16:39:13.079Z,92.14
2023-01-04T16:44:20.336Z,92.65
2023-01-04T16:49:26.032Z,92.78
2023-01-04T16:54:31.631Z,92.56
2023-01-04T16:59:37.212Z,92.72
2023-01-04T17:04:42.668Z,92.55
2023-01-04T17:09:49.783Z,92.54
2023-01-04T17:15:23.451Z,92.72
2023-01-04T17:20:04.729Z,92.73
2023-01-04T17:25:10.731Z,92.87
2023-01-04T17:30:16.515Z,92.75
2023-01-04T17:35:22.053Z,92.94
2023-01-04T17:40:27.672Z,93.00
2023-01-04T17:45:34.114Z,93.08
2023-01-04T17:50:39.666Z,93.40
2023-01-04T17:55:45.210Z,93.41
2023-01-04T18:00:50.610Z,93.51
2023-01-04T18:06:15.551Z,93.40
2023-01-04T18:11:08.006Z,93.38
2023-01-04T18:16:24.393Z,93.23
2023-01-04T18:21:31.043Z,93.47
2023-01-04T18:27:01.990Z,93.78
2023-01-04T18:31:44.055Z,93.68
2023-01-04T18:36:49.655Z,94.00
2023-01-04T18:41:55.185Z,93.91
2023-01-04T18:47:00.740Z,93.97
2023-01-04T18:52:06.603Z,94.24
2023-01-04T18:57:12.690Z,94.41
2023-01-04T19:02:20.687Z,94.51
2023-01-04T19:07:26.709Z,94.69
2023-01-04T19:12:32.243Z,94.61
2023-01-04T19:17:38.790Z,94.80
2023-01-04T19:22:44.378Z,94.80
2023-01-04T19:27:49.930Z,94.59
2023-01-04T19:32:55.468Z,94.66
2023-01-04T19:38:01.889Z,94.76
2023-01-04T19:43:07.807Z,94.82
2023-01-04T19:48:13.352Z,94.86
2023-01-04T19:53:18.795Z,94.84
2023-01-04T19:58:24.202Z,94.59
2023-01-04T20:03:29.823Z,94.43
2023-01-04T20:08:35.775Z,94.66
2023-01-04T20:13:41.685Z,94.92
2023-01-04T20:18:47.932Z,94.53
2023-01-04T20:23:53.595Z,94.36
2023-01-04T20:28:59.136Z,93.79
2023-01-04T20:34:04.658Z,93.96
2023-01-04T20:39:10.213Z,93.13
2023-01-04T20:44:15.610Z,93.13
2023-01-04T20:49:21.991Z,92.88
2023-01-04T20:54:27.438Z,92.86
2023-01-04T20:59:33.095Z,93.08
2023-01-04T21:04:38.773Z,93.39
2023-01-04T21:09:45.374Z,93.47
2023-01-04T21:14:50.833Z,93.75
2023-01-04T21:19:56.303Z,94.05
2023-01-04T21:25:01.697Z,93.81
2023-01-04T21:30:08.006Z,93.71
2023-01-04T21:35:13.588Z,93.56
2023-01-04T21:40:24.180Z,93.24
2023-01-04T21:45:30.841Z,92.96
2023-01-04T21:50:37.870Z,92.66
2023-01-04T21:55:43.335Z,92.37
2023-01-04T22:00:48.966Z,92.15
2023-01-04T22:05:54.492Z,92.08
2023-01-04T22:11:00.159Z,92.02
2023-01-04T22:16:11.351Z,91.72
2023-01-04T22:21:19.421Z,91.45
2023-01-04T22:26:25.040Z,90.87
2023-01-04T22:31:30.699Z,90.96
2023-01-04T22:36:36.243Z,90.91
2023-01-04T22:41:43.921Z,91.05
2023-01-04T22:46:49.568Z,91.21
2023-01-04T22:51:57.337Z,91.22
2023-01-04T22:57:02.818Z,91.38
2023-01-04T23:02:08.380Z,91.74
2023-01-04T23:07:13.834Z,91.65
2023-01-04T23:12:19.278Z,91.78
2023-01-04T23:17:24.762Z,92.03
2023-01-04T23:22:30.133Z,92.07
2023-01-04T23:27:35.581Z,91.92
2023-01-04T23:32:41.119Z,91.96
2023-01-04T23:37:46.560Z,91.71
2023-01-04T23:42:53.510Z,91.70
2023-01-04T23:47:58.953Z,91.54
2023-01-04T23:53:04.357Z,91.53
2023-01-04T23:58:09.807Z,91.40
